GMTA

Details ICAO GMTA (AHU)
Name CHERIF EL IDRISSI
Region Morocco
Timezone Africa/Casablanca (UTC+1.0)
Plans Departing 29
Arriving 30
Stats Elevation 95 ft / 29 m (AMSL)
Location 35.177300° -3.839560°
Runways 1
Magnetic Variation 0.602° W
Sunrise 2018-10-20 06:26:36 UTC / 2018-10-20 07:26:36 Local
Sunset 2018-10-20 17:36:01 UTC / 2018-10-20 18:36:01 Local
Advertisement - Login to hide

Runways

ID Width Length Bearing (true/mag) Surface Threshold Overrun Markings Lighting
18 148 ft / 45 m 8,234 ft / 2,510 m 172.65° / 173.25° ASPHALT 0 ft / 0 m 0 ft / 0 m APP EDGE THRESHOLD
36 148 ft / 45 m 8,234 ft / 2,510 m 352.65° / 353.25° ASPHALT 0 ft / 0 m 0 ft / 0 m APP EDGE THRESHOLD

Map

Weather


0- 5 10 15 20 25 30 35+ Temperature / °C

Clouds and Precipitation
Forecast for 2018-10-20 06:00 UTC. Updated 3 hours ago

Ground ~20,000 ft ~40,000 ft Winds

METAR

GMTA 200600Z 08004KT 9999 SCT030 17/12 Q1011 NOSIG

TAF

TAF GMTA 200500Z 2006/2112 20010KT 8000 NSC PROB40 TEMPO 2006/2007 6000 -RA SCT016TCU BKN100 BECMG 2007/2009 SCT017

Frequencies

Tower 123.90 MHz AL HOCEIMA TWR
Tower 118.70 MHz AL HOCEIMA TWR
Warning: Do not use this data for real-world aviation or navigation. No guarantee of current accuracy is given.